createdAt,value
2023-01-10T00:00:05.951Z,100207.44
2023-01-10T00:02:32.311Z,100221.91
2023-01-10T00:04:58.742Z,100229.03
2023-01-10T00:07:25.097Z,100232.59
2023-01-10T00:09:51.442Z,100239.06
2023-01-10T00:12:36.420Z,100238.34
2023-01-10T00:15:02.756Z,100248.34
2023-01-10T00:17:29.096Z,100252.63
2023-01-10T00:19:55.429Z,100256.88
2023-01-10T00:22:24.987Z,100266.25
2023-01-10T00:24:51.461Z,100261.16
2023-01-10T00:27:22.566Z,100266.19
2023-01-10T00:29:51.168Z,100260.44
2023-01-10T00:32:17.549Z,100264.69
2023-01-10T00:34:43.892Z,100263.97
2023-01-10T00:37:10.230Z,100272.59
2023-01-10T00:39:36.578Z,100276.09
2023-01-10T00:42:21.632Z,100279.72
2023-01-10T00:44:47.968Z,100284.00
2023-01-10T00:47:14.352Z,100289.00
2023-01-10T00:49:40.964Z,100289.00
2023-01-10T00:52:07.281Z,100291.88
2023-01-10T00:54:33.671Z,100299.03
2023-01-10T00:57:00.030Z,100289.66
2023-01-10T00:59:26.365Z,100293.19
2023-01-10T01:01:52.789Z,100301.81
2023-01-10T01:04:19.196Z,100316.19
2023-01-10T01:06:46.987Z,100329.81
2023-01-10T01:09:13.555Z,100324.81
2023-01-10T01:11:39.937Z,100323.34
2023-01-10T01:14:06.264Z,100333.38
2023-01-10T01:16:32.581Z,100328.34
2023-01-10T01:18:58.914Z,100329.09
2023-01-10T01:21:28.244Z,100331.88
2023-01-10T01:23:56.770Z,100338.34
2023-01-10T01:26:23.659Z,100330.41
2023-01-10T01:28:50.086Z,100359.16
2023-01-10T01:31:16.434Z,100348.28
2023-01-10T01:33:45.801Z,100353.41
2023-01-10T01:36:12.329Z,100359.78
2023-01-10T01:38:38.786Z,100367.69
2023-01-10T01:41:25.128Z,100371.94
2023-01-10T01:44:23.910Z,100369.72
2023-01-10T01:46:50.793Z,100375.47
2023-01-10T01:49:19.603Z,100386.22
2023-01-10T01:51:46.813Z,100380.47
2023-01-10T01:54:13.170Z,100387.72
2023-01-10T01:56:42.750Z,100387.72
2023-01-10T01:59:13.122Z,100389.09
2023-01-10T02:01:39.956Z,100396.25
2023-01-10T02:04:11.127Z,100402.00
2023-01-10T02:06:37.528Z,100407.72
2023-01-10T02:09:07.816Z,100410.59
2023-01-10T02:11:34.935Z,100412.00
2023-01-10T02:14:01.296Z,100421.38
2023-01-10T02:16:27.645Z,100422.75
2023-01-10T02:19:18.831Z,100422.00
2023-01-10T02:21:56.792Z,100424.88
2023-01-10T02:24:33.830Z,100424.88
2023-01-10T02:27:09.650Z,100429.91
2023-01-10T02:29:46.535Z,100435.56
2023-01-10T02:32:18.782Z,100443.53
2023-01-10T02:34:53.072Z,100435.56
2023-01-10T02:37:20.167Z,100450.66
2023-01-10T02:40:00.263Z,100453.44
2023-01-10T02:42:30.337Z,100452.78
2023-01-10T02:45:15.398Z,100452.72
2023-01-10T02:47:41.777Z,100454.84
2023-01-10T02:50:37.525Z,100456.31
2023-01-10T02:53:04.860Z,100459.19
2023-01-10T02:55:34.492Z,100468.47
2023-01-10T02:58:19.711Z,100465.59
2023-01-10T03:00:48.075Z,100472.09
2023-01-10T03:03:17.084Z,100482.84
2023-01-10T03:05:55.371Z,100480.63
2023-01-10T03:08:26.671Z,100493.56
2023-01-10T03:11:08.954Z,100495.06
2023-01-10T03:13:52.333Z,100503.78
2023-01-10T03:16:19.380Z,100510.91
2023-01-10T03:36:02.303Z,100544.25
2023-01-10T03:38:34.605Z,100550.00
2023-01-10T03:41:04.556Z,100557.88
2023-01-10T03:43:59.654Z,100567.25
2023-01-10T03:46:40.373Z,100577.34
2023-01-10T03:49:06.715Z,100596.06
2023-01-10T03:51:33.029Z,100599.03
2023-01-10T03:54:00.029Z,100599.03
2023-01-10T03:56:26.546Z,100602.00
2023-01-10T03:58:52.868Z,100609.25
2023-01-10T04:01:19.315Z,100613.59
2023-01-10T04:03:45.735Z,100615.06
2023-01-10T04:06:12.070Z,100612.19
2023-01-10T04:08:38.400Z,100625.16
2023-01-10T04:11:04.731Z,100622.22
2023-01-10T04:13:31.056Z,100629.41
2023-01-10T04:15:59.239Z,100635.16
2023-01-10T04:18:25.590Z,100629.41
2023-01-10T04:20:52.327Z,100638.03
2023-01-10T04:23:18.714Z,100651.03
2023-01-10T04:25:46.742Z,100652.50
2023-01-10T04:28:13.066Z,100655.38
2023-01-10T04:30:39.394Z,100657.63
2023-01-10T04:33:07.216Z,100675.59
2023-01-10T04:35:33.551Z,100679.97
2023-01-10T04:38:00.701Z,100678.56
2023-01-10T04:40:27.024Z,100684.31
2023-01-10T04:42:53.411Z,100698.78
2023-01-10T04:45:21.745Z,100703.06
2023-01-10T04:47:51.554Z,100703.06
2023-01-10T04:50:17.941Z,100708.81
2023-01-10T04:52:44.272Z,100710.19
2023-01-10T04:55:10.599Z,100715.19
2023-01-10T04:57:36.961Z,100720.31
2023-01-10T05:00:03.523Z,100716.03
2023-01-10T05:02:29.995Z,100727.53
2023-01-10T05:04:56.395Z,100731.22
2023-01-10T05:07:22.733Z,100739.13
2023-01-10T05:09:49.058Z,100740.59
2023-01-10T05:12:15.443Z,100746.34
2023-01-10T05:14:41.759Z,100750.72
2023-01-10T05:17:08.089Z,100769.34
2023-01-10T05:19:34.384Z,100767.22
2023-01-10T05:22:00.706Z,100772.97
2023-01-10T05:24:27.030Z,100777.97
2023-01-10T05:26:53.347Z,100777.97
2023-01-10T05:29:19.663Z,100776.47
2023-01-10T05:31:46.037Z,100790.94
2023-01-10T05:34:12.824Z,100793.09
2023-01-10T05:36:39.170Z,100795.19
2023-01-10T05:39:05.496Z,100799.56
2023-01-10T05:41:31.820Z,100803.19
2023-01-10T05:43:58.128Z,100798.19
2023-01-10T05:46:24.453Z,100805.44
2023-01-10T05:48:51.891Z,100807.63
2023-01-10T05:51:18.209Z,100808.41
2023-01-10T05:53:44.533Z,100827.66
2023-01-10T05:56:10.842Z,100825.81
2023-01-10T05:58:37.215Z,100825.66
2023-01-10T06:01:03.591Z,100835.66
2023-01-10T06:03:29.979Z,100850.31
2023-01-10T06:05:56.696Z,100856.06
2023-01-10T06:08:23.078Z,100857.44
2023-01-10T06:10:49.464Z,100867.09
2023-01-10T06:13:15.810Z,100867.84
2023-01-10T06:15:42.219Z,100869.22
2023-01-10T06:18:11.177Z,100880.00
2023-01-10T06:20:38.607Z,100876.38
2023-01-10T06:23:04.954Z,100874.97
2023-01-10T06:25:31.911Z,100882.25
2023-01-10T06:27:58.267Z,100890.88
2023-01-10T06:30:24.682Z,100901.69
2023-01-10T06:32:51.027Z,100901.69
2023-01-10T06:35:20.206Z,100906.72
2023-01-10T06:37:46.550Z,100916.06
2023-01-10T06:40:12.890Z,100921.19
2023-01-10T06:42:39.987Z,100929.81
2023-01-10T06:45:06.405Z,100930.00
2023-01-10T06:47:32.731Z,100938.66
2023-01-10T06:49:59.046Z,100939.38
2023-01-10T06:52:25.371Z,100945.88
2023-01-10T06:54:53.053Z,100945.13
2023-01-10T06:57:19.732Z,100953.03
2023-01-10T06:59:46.078Z,100956.47
2023-01-10T07:02:12.496Z,100953.41
2023-01-10T07:04:38.842Z,100962.03
2023-01-10T07:07:05.181Z,100974.44
2023-01-10T07:09:31.497Z,100975.94
2023-01-10T07:11:57.820Z,100975.94
2023-01-10T07:14:24.517Z,100983.16
2023-01-10T07:16:50.885Z,100987.53
2023-01-10T07:19:18.142Z,101002.66
2023-01-10T07:21:44.745Z,101002.75
2023-01-10T07:24:11.069Z,101006.38
2023-01-10T07:26:37.396Z,101009.13
2023-01-10T07:29:03.706Z,101007.00
2023-01-10T07:31:30.096Z,101016.41
2023-01-10T07:33:56.456Z,101019.16
2023-01-10T07:36:22.814Z,101026.69
2023-01-10T07:38:55.022Z,101031.53
2023-01-10T07:41:21.352Z,101042.56
2023-01-10T07:43:48.783Z,101040.44
2023-01-10T07:46:15.223Z,101046.75
2023-01-10T07:48:41.992Z,101054.53
2023-01-10T07:51:08.379Z,101058.38
2023-01-10T07:53:34.725Z,101063.66
2023-01-10T07:56:01.484Z,101074.91
2023-01-10T07:58:30.789Z,101080.19
2023-01-10T08:00:57.836Z,101081.66
2023-01-10T08:03:24.915Z,101086.34
2023-01-10T08:05:57.017Z,101086.34
2023-01-10T08:08:23.362Z,101099.41
2023-01-10T08:10:49.705Z,101095.72
2023-01-10T08:13:19.073Z,101109.38
2023-01-10T08:15:47.187Z,101105.09
2023-01-10T08:18:13.722Z,101106.19
2023-01-10T08:20:40.402Z,101112.28
2023-01-10T08:23:06.725Z,101122.84
2023-01-10T08:25:33.071Z,101117.94
2023-01-10T08:28:08.882Z,101125.16
2023-01-10T08:30:35.188Z,101131.41
2023-01-10T08:33:02.091Z,101137.75
2023-01-10T08:35:28.429Z,101129.59
2023-01-10T08:37:57.979Z,101127.41
2023-01-10T08:40:24.336Z,101135.06
2023-01-10T08:42:56.262Z,101137.38
2023-01-10T08:45:22.588Z,101145.28
2023-01-10T08:47:49.027Z,101150.66
2023-01-10T08:50:15.420Z,101147.72
2023-01-10T08:52:41.765Z,101147.81
2023-01-10T08:55:08.190Z,101167.00
2023-01-10T08:57:34.528Z,101160.47
2023-01-10T09:00:00.858Z,101165.94
2023-01-10T09:02:27.297Z,101176.16
2023-01-10T09:04:53.704Z,101175.53
2023-01-10T09:07:20.047Z,101179.25
2023-01-10T09:09:46.371Z,101185.09
2023-01-10T09:12:31.157Z,101188.81
2023-01-10T09:14:57.486Z,101189.59
2023-01-10T09:17:23.834Z,101196.00
2023-01-10T09:19:50.155Z,101192.69
2023-01-10T09:22:19.186Z,101200.03
2023-01-10T09:24:48.287Z,101194.28
2023-01-10T09:27:14.614Z,101185.88
2023-01-10T09:29:40.937Z,101203.63
2023-01-10T09:32:35.550Z,101209.06
2023-01-10T09:35:01.969Z,101207.31
2023-01-10T09:37:28.317Z,101210.50
2023-01-10T09:39:54.659Z,101213.59
2023-01-10T09:42:20.920Z,101207.94
2023-01-10T09:44:56.387Z,101212.28
2023-01-10T09:47:34.982Z,101218.25
2023-01-10T09:50:38.395Z,101214.19
2023-01-10T09:53:20.782Z,101226.88
2023-01-10T09:55:48.992Z,101221.44
2023-01-10T09:58:16.619Z,101219.84
2023-01-10T10:00:44.114Z,101215.72
2023-01-10T10:03:16.673Z,101210.91
2023-01-10T10:05:43.518Z,101214.00
2023-01-10T10:08:35.443Z,101216.31
2023-01-10T10:11:15.094Z,101210.66
2023-01-10T10:13:50.271Z,101208.72
2023-01-10T10:16:35.201Z,101212.34
2023-01-10T10:19:04.502Z,101218.47
2023-01-10T10:21:34.543Z,101232.50
2023-01-10T10:24:16.582Z,101222.88
2023-01-10T10:26:49.313Z,101221.41
2023-01-10T10:29:30.470Z,101227.59
2023-01-10T10:32:01.961Z,101221.53
2023-01-10T10:34:36.364Z,101238.69
2023-01-10T10:37:05.510Z,101234.84
2023-01-10T10:39:34.712Z,101235.59
2023-01-10T10:42:01.051Z,101227.47
2023-01-10T10:44:32.514Z,101238.31
2023-01-10T10:46:58.938Z,101237.88
2023-01-10T10:49:38.952Z,101254.09
2023-01-10T10:52:09.212Z,101258.06
2023-01-10T10:54:36.919Z,101260.63
2023-01-10T10:57:03.259Z,101254.97
2023-01-10T10:59:29.608Z,101260.59
2023-01-10T11:01:55.999Z,101251.50
2023-01-10T11:04:22.858Z,101243.91
2023-01-10T11:06:49.355Z,101240.03
2023-01-10T11:09:17.642Z,101246.56
2023-01-10T11:11:44.981Z,101238.09
2023-01-10T11:14:11.286Z,101232.34
2023-01-10T11:16:39.591Z,101239.59
2023-01-10T11:19:18.179Z,101236.94
2023-01-10T11:21:49.333Z,101247.06
2023-01-10T11:24:23.057Z,101249.72
2023-01-10T11:26:49.432Z,101243.16
2023-01-10T11:29:15.670Z,101235.31
2023-01-10T11:31:42.113Z,101242.59
2023-01-10T11:34:17.044Z,101249.81
2023-01-10T11:36:53.275Z,101260.81
2023-01-10T11:39:19.598Z,101268.00
2023-01-10T11:41:45.942Z,101263.50
2023-01-10T11:44:28.216Z,101267.94
2023-01-10T11:46:55.638Z,101274.88
2023-01-10T11:49:36.489Z,101275.63
2023-01-10T11:52:03.818Z,101273.91
2023-01-10T11:54:30.230Z,101265.81
2023-01-10T11:57:01.502Z,101267.53
2023-01-10T11:59:28.080Z,101267.09
2023-01-10T12:01:56.207Z,101269.25
2023-01-10T12:04:22.757Z,101273.19
2023-01-10T12:06:49.897Z,101269.88
2023-01-10T12:09:37.461Z,101266.66
2023-01-10T12:12:24.259Z,101267.94
2023-01-10T12:14:50.731Z,101273.78
2023-01-10T12:17:20.252Z,101271.75
2023-01-10T12:19:46.596Z,101272.50
2023-01-10T12:22:13.914Z,101276.97
2023-01-10T12:24:40.816Z,101282.75
2023-01-10T12:27:07.198Z,101276.78
2023-01-10T12:29:41.010Z,101287.00
2023-01-10T12:32:13.375Z,101289.88
2023-01-10T12:34:44.368Z,101289.97
2023-01-10T12:37:16.473Z,101298.44
2023-01-10T12:39:50.458Z,101290.88
2023-01-10T12:42:42.927Z,101281.34
2023-01-10T12:45:12.022Z,101296.59
2023-01-10T12:47:43.026Z,101296.59
2023-01-10T12:50:13.869Z,101303.59
2023-01-10T12:52:48.511Z,101309.25
2023-01-10T12:55:21.003Z,101312.22
2023-01-10T12:57:51.587Z,101310.09
2023-01-10T13:00:20.782Z,101323.66
2023-01-10T13:02:47.192Z,101330.16
2023-01-10T13:05:20.399Z,101332.09
2023-01-10T13:07:46.755Z,101347.81
2023-01-10T13:10:15.844Z,101342.41
2023-01-10T13:12:42.284Z,101347.59
2023-01-10T13:15:14.735Z,101343.59
2023-01-10T13:17:42.679Z,101342.31
2023-01-10T13:20:21.297Z,101347.97
2023-01-10T13:22:48.190Z,101343.28
2023-01-10T13:25:21.441Z,101351.47
2023-01-10T13:27:47.783Z,101351.81
2023-01-10T13:30:31.300Z,101337.19
2023-01-10T13:33:02.042Z,101347.31
2023-01-10T13:35:43.006Z,101348.69
2023-01-10T13:38:16.512Z,101342.09
2023-01-10T13:40:45.833Z,101338.28
2023-01-10T13:43:34.489Z,101345.41
2023-01-10T13:46:16.389Z,101342.66
2023-01-10T13:49:03.523Z,101351.06
2023-01-10T13:51:30.232Z,101357.69
2023-01-10T13:54:00.099Z,101352.59
2023-01-10T13:56:32.262Z,101351.53
2023-01-10T13:59:17.473Z,101342.78
2023-01-10T14:02:02.963Z,101352.19
2023-01-10T14:04:36.432Z,101361.34
2023-01-10T14:07:03.500Z,101359.09
2023-01-10T14:09:31.309Z,101356.13
2023-01-10T14:11:58.131Z,101357.63
2023-01-10T14:14:25.657Z,101362.53
2023-01-10T14:16:52.405Z,101361.69
2023-01-10T14:19:23.843Z,101359.09
2023-01-10T14:21:51.944Z,101362.63
2023-01-10T14:24:22.003Z,101371.28
2023-01-10T14:26:48.332Z,101371.38
2023-01-10T14:29:15.714Z,101373.59
2023-01-10T14:31:46.988Z,101379.38
2023-01-10T14:34:22.089Z,101375.63
2023-01-10T14:36:57.097Z,101379.91
2023-01-10T14:39:23.421Z,101375.53
2023-01-10T14:41:50.038Z,101361.84
2023-01-10T14:44:32.814Z,101355.34
2023-01-10T14:47:02.837Z,101367.13
2023-01-10T14:49:29.911Z,101368.19
2023-01-10T14:52:10.163Z,101365.63
2023-01-10T14:54:36.493Z,101367.25
2023-01-10T14:57:02.855Z,101370.13
2023-01-10T14:59:34.075Z,101375.75
2023-01-10T15:02:01.494Z,101380.13
2023-01-10T15:04:29.286Z,101375.75
2023-01-10T15:07:11.732Z,101365.84
2023-01-10T15:09:38.199Z,101370.84
2023-01-10T15:12:05.292Z,101370.13
2023-01-10T15:14:31.779Z,101367.13
2023-01-10T15:17:02.015Z,101364.38
2023-01-10T15:19:29.651Z,101362.84
2023-01-10T15:21:55.978Z,101374.38
2023-01-10T15:24:28.906Z,101364.66
2023-01-10T15:26:55.393Z,101365.78
2023-01-10T15:29:22.376Z,101361.53
2023-01-10T15:31:48.778Z,101372.50
2023-01-10T15:34:15.973Z,101368.97
2023-01-10T15:36:46.802Z,101363.53
2023-01-10T15:39:23.014Z,101353.38
2023-01-10T15:41:49.567Z,101359.69
2023-01-10T15:44:34.566Z,101369.09
2023-01-10T15:47:00.954Z,101355.81
2023-01-10T15:49:28.076Z,101361.69
2023-01-10T15:51:54.429Z,101364.84
2023-01-10T15:54:21.590Z,101363.69
2023-01-10T15:56:48.340Z,101371.06
2023-01-10T15:59:21.576Z,101364.69
2023-01-10T16:01:54.781Z,101366.09
2023-01-10T16:04:21.255Z,101367.41
2023-01-10T16:06:47.598Z,101362.91
2023-01-10T16:09:20.535Z,101354.84
2023-01-10T16:12:09.336Z,101371.03
2023-01-10T16:14:35.711Z,101373.06
2023-01-10T16:17:02.478Z,101361.44
2023-01-10T16:19:31.982Z,101358.84
2023-01-10T16:21:58.418Z,101354.69
2023-01-10T16:24:31.654Z,101354.38
2023-01-10T16:26:58.137Z,101350.31
2023-01-10T16:29:24.574Z,101347.16
2023-01-10T16:31:52.356Z,101339.44
2023-01-10T16:34:18.761Z,101349.31
2023-01-10T16:36:45.109Z,101354.81
2023-01-10T16:39:15.294Z,101341.97
2023-01-10T16:42:03.519Z,101354.06
2023-01-10T16:44:29.997Z,101349.56
2023-01-10T16:46:56.348Z,101362.31
2023-01-10T16:49:22.715Z,101353.56
2023-01-10T16:51:49.134Z,101361.13
2023-01-10T16:54:16.062Z,101362.63
2023-01-10T16:56:42.940Z,101358.22
2023-01-10T16:59:09.294Z,101348.84
2023-01-10T17:01:39.364Z,101354.72
2023-01-10T17:04:06.613Z,101348.63
2023-01-10T17:06:33.135Z,101349.38
2023-01-10T17:08:59.480Z,101352.56
2023-01-10T17:11:26.658Z,101357.03
2023-01-10T17:13:52.995Z,101351.56
2023-01-10T17:16:19.849Z,101355.06
2023-01-10T17:18:46.419Z,101347.19
2023-01-10T17:21:16.426Z,101359.84
2023-01-10T17:23:42.791Z,101352.34
2023-01-10T17:26:09.851Z,101358.31
2023-01-10T17:28:36.568Z,101364.50
2023-01-10T17:31:03.211Z,101361.59
2023-01-10T17:33:29.539Z,101364.09
2023-01-10T17:35:56.042Z,101364.41
2023-01-10T17:38:22.763Z,101359.47
2023-01-10T17:40:49.095Z,101362.97
2023-01-10T17:43:15.595Z,101359.28
2023-01-10T17:45:42.610Z,101358.53
2023-01-10T17:48:09.129Z,101360.44
2023-01-10T17:50:35.690Z,101356.50
2023-01-10T17:53:02.073Z,101356.81
2023-01-10T17:55:28.400Z,101357.03
2023-01-10T17:57:55.082Z,101360.66
2023-01-10T18:00:21.430Z,101356.41
2023-01-10T18:02:47.805Z,101350.84
2023-01-10T18:05:14.147Z,101339.13
2023-01-10T18:07:40.631Z,101346.56
2023-01-10T18:10:08.771Z,101345.31
2023-01-10T18:12:35.429Z,101350.53
2023-01-10T18:15:01.912Z,101354.50
2023-01-10T18:17:28.301Z,101351.53
2023-01-10T18:19:54.664Z,101345.53
2023-01-10T18:22:39.513Z,101349.81
2023-01-10T18:25:07.211Z,101343.31
2023-01-10T18:27:33.979Z,101345.78
2023-01-10T18:30:00.691Z,101331.84
2023-01-10T18:32:27.037Z,101342.91
2023-01-10T18:34:53.455Z,101335.78
2023-01-10T18:37:19.780Z,101335.97
2023-01-10T18:39:47.240Z,101338.09
2023-01-10T18:42:13.614Z,101331.06
2023-01-10T18:44:40.063Z,101328.09
2023-01-10T18:47:06.410Z,101340.13
2023-01-10T18:49:32.733Z,101332.88
2023-01-10T18:51:59.226Z,101330.31
2023-01-10T18:54:27.893Z,101325.31
2023-01-10T18:56:55.808Z,101326.47
2023-01-10T18:59:22.371Z,101323.50
2023-01-10T19:01:48.881Z,101319.88
2023-01-10T19:04:15.317Z,101316.13
2023-01-10T19:06:44.149Z,101316.25
2023-01-10T19:09:10.474Z,101315.72
2023-01-10T19:11:36.810Z,101316.34
2023-01-10T19:14:03.139Z,101306.22
2023-01-10T19:16:31.851Z,101303.53
2023-01-10T19:18:58.898Z,101299.06
2023-01-10T19:21:25.531Z,101301.84
2023-01-10T19:23:52.303Z,101306.31
2023-01-10T19:26:18.674Z,101295.13
2023-01-10T19:28:45.357Z,101284.47
2023-01-10T19:31:15.923Z,101288.22
2023-01-10T19:33:43.964Z,101281.16
2023-01-10T19:36:10.430Z,101288.75
2023-01-10T19:38:36.750Z,101288.84
2023-01-10T19:41:03.180Z,101290.13
2023-01-10T19:43:29.508Z,101284.56
2023-01-10T19:45:55.922Z,101281.50
2023-01-10T19:48:22.320Z,101285.88
2023-01-10T19:50:48.687Z,101275.84
2023-01-10T19:53:15.148Z,101267.75
2023-01-10T19:55:41.490Z,101276.19
2023-01-10T19:58:07.812Z,101267.97
2023-01-10T20:00:34.147Z,101254.97
2023-01-10T20:03:00.651Z,101260.00
2023-01-10T20:05:27.377Z,101262.22
2023-01-10T20:07:53.779Z,101260.72
2023-01-10T20:10:20.152Z,101254.97
2023-01-10T20:12:46.527Z,101252.19
2023-01-10T20:15:12.896Z,101249.31
2023-01-10T20:17:40.453Z,101256.44
2023-01-10T20:20:07.019Z,101248.03
2023-01-10T20:22:33.356Z,101247.72
2023-01-10T20:25:00.696Z,101240.38
2023-01-10T20:27:27.743Z,101244.66
2023-01-10T20:29:54.113Z,101236.84
2023-01-10T20:32:20.511Z,101241.66
2023-01-10T20:34:47.349Z,101237.28
2023-01-10T20:37:14.421Z,101234.50
2023-01-10T20:39:40.814Z,101227.38
2023-01-10T20:42:07.139Z,101228.22
2023-01-10T20:44:33.506Z,101227.47
2023-01-10T20:46:59.828Z,101234.72
2023-01-10T20:49:26.150Z,101223.09
2023-01-10T20:51:54.320Z,101220.22
2023-01-10T20:54:20.810Z,101217.13
2023-01-10T20:56:47.187Z,101220.00
2023-01-10T20:59:13.514Z,101214.91
2023-01-10T21:01:39.931Z,101215.56
2023-01-10T21:04:06.334Z,101219.81
2023-01-10T21:06:32.812Z,101216.94
2023-01-10T21:09:00.355Z,101214.16
2023-01-10T21:11:26.747Z,101208.50
2023-01-10T21:13:53.088Z,101209.34
2023-01-10T21:16:20.136Z,101200.72
2023-01-10T21:18:46.597Z,101202.84
2023-01-10T21:21:13.495Z,101196.97
2023-01-10T21:23:39.941Z,101199.88
2023-01-10T21:26:06.950Z,101201.25
2023-01-10T21:28:33.832Z,101204.16
2023-01-10T21:31:00.283Z,101199.75
2023-01-10T21:33:26.719Z,101195.41
2023-01-10T21:35:53.522Z,101187.50
2023-01-10T21:38:20.005Z,101176.72
2023-01-10T21:40:46.333Z,101178.25
2023-01-10T21:43:12.652Z,101166.72
2023-01-10T21:45:38.983Z,101168.88
2023-01-10T21:48:05.303Z,101162.25
2023-01-10T21:50:33.596Z,101157.16
2023-01-10T21:53:00.403Z,101157.78
2023-01-10T21:55:26.769Z,101150.56
2023-01-10T21:57:53.093Z,101151.81
2023-01-10T22:00:19.651Z,101156.09
2023-01-10T22:02:47.551Z,101149.59
2023-01-10T22:05:13.888Z,101148.84
2023-01-10T22:07:40.279Z,101152.38
2023-01-10T22:10:07.478Z,101143.63
2023-01-10T22:12:33.841Z,101144.38
2023-01-10T22:15:00.160Z,101136.38
2023-01-10T22:17:26.496Z,101132.78
2023-01-10T22:19:52.832Z,101138.41
2023-01-10T22:22:19.159Z,101134.81
2023-01-10T22:24:47.470Z,101133.94
2023-01-10T22:27:14.424Z,101122.44
2023-01-10T22:29:40.860Z,101119.53
2023-01-10T22:32:07.188Z,101120.91
2023-01-10T22:34:33.499Z,101109.41
2023-01-10T22:36:59.821Z,101102.06
2023-01-10T22:39:26.135Z,101105.69
2023-01-10T22:41:55.268Z,101103.47
2023-01-10T22:44:22.368Z,101112.09
2023-01-10T22:46:49.602Z,101107.72
2023-01-10T22:49:15.929Z,101105.50
2023-01-10T22:51:42.299Z,101097.53
2023-01-10T22:54:09.147Z,101091.03
2023-01-10T22:56:37.228Z,101078.03
2023-01-10T22:59:03.547Z,101082.28
2023-01-10T23:01:29.875Z,101077.28
2023-01-10T23:03:56.221Z,101068.66
2023-01-10T23:06:22.654Z,101068.56
2023-01-10T23:08:49.042Z,101062.78
2023-01-10T23:11:15.775Z,101072.81
2023-01-10T23:13:42.112Z,101065.56
2023-01-10T23:16:09.317Z,101064.84
2023-01-10T23:18:35.752Z,101063.34
2023-01-10T23:21:02.098Z,101059.72
2023-01-10T23:23:28.415Z,101061.09
2023-01-10T23:26:01.600Z,101056.00
2023-01-10T23:28:39.988Z,101048.09
2023-01-10T23:31:06.473Z,101048.09
2023-01-10T23:33:32.937Z,101045.16
2023-01-10T23:35:59.430Z,101042.34
2023-01-10T23:38:25.981Z,101035.22
2023-01-10T23:40:52.296Z,101030.94
2023-01-10T23:43:18.628Z,101033.81
2023-01-10T23:45:44.979Z,101020.94
2023-01-10T23:48:11.483Z,101022.44
2023-01-10T23:50:37.867Z,101013.91
2023-01-10T23:53:04.191Z,101010.28
2023-01-10T23:55:30.735Z,101005.28
2023-01-10T23:57:57.083Z,100999.50
